Time;durP1;ratioP1;P1;durP2;ratioP2;P2;SDS_P1;SDS_P2;PMS_P1;PMS_P2;Temp;Humidity;BMP_temperature;BMP_pressure;BME280_temperature;BME280_humidity;BME280_pressure;Samples;Min_cycle;Max_cycle;Signal;HPM_P1;HPM_P2
2023/03/07 00:01:27;;;;;;;35.33;17.17;;;;;;;2.27;53.13;99100.16;5093355;28;20040;-57
2023/03/07 00:03:53;;;;;;;25.85;12.80;;;;;;;2.29;52.61;99101.88;5093279;28;20074;-57
2023/03/07 00:06:19;;;;;;;29.05;12.85;;;;;;;2.31;52.54;99107.91;5091782;28;20036;-57
2023/03/07 00:08:49;;;;;;;24.33;11.82;;;;;;;2.29;52.61;99101.88;5086324;28;20024;-57
2023/03/07 00:11:14;;;;;;;22.60;10.80;;;;;;;2.29;52.68;99095.84;5083983;28;20032;-57
2023/03/07 00:13:40;;;;;;;19.85;10.63;;;;;;;2.23;53.11;99099.34;5093204;28;20039;-57
2023/03/07 00:16:08;;;;;;;22.92;10.18;;;;;;;2.23;53.07;99083.78;5093086;28;20036;-57
2023/03/07 00:18:34;;;;;;;24.60;12.38;;;;;;;2.22;53.07;99090.72;5095422;28;20028;-57
2023/03/07 00:21:05;;;;;;;22.33;10.95;;;;;;;2.19;52.87;99085.56;5095448;28;20124;-57
2023/03/07 00:23:32;;;;;;;24.52;11.45;;;;;;;2.16;53.07;99085.59;5097185;28;20107;-57
2023/03/07 00:26:19;;;;;;;20.40;11.18;;;;;;;2.13;53.74;99085.59;5081610;28;20035;-57
2023/03/07 00:28:47;;;;;;;21.85;10.85;;;;;;;2.04;53.63;99074.47;5085923;28;20115;-57
2023/03/07 00:31:13;;;;;;;21.85;11.68;;;;;;;2.02;53.51;99069.28;5096718;28;20032;-58
2023/03/07 00:33:39;;;;;;;21.60;11.18;;;;;;;2.06;53.39;99073.56;5096591;28;20364;-57
2023/03/07 00:36:07;;;;;;;18.88;9.18;;;;;;;1.97;53.35;99056.38;5094190;28;20563;-57
2023/03/07 00:38:33;;;;;;;17.50;9.05;;;;;;;2.04;53.51;99066.69;5085955;28;20113;-57
2023/03/07 00:41:01;;;;;;;19.83;11.48;;;;;;;2.05;53.22;99060.63;5095350;28;20585;-57
2023/03/07 00:43:27;;;;;;;17.55;9.00;;;;;;;2.05;53.26;99058.91;5096738;28;20044;-58
2023/03/07 00:45:54;;;;;;;19.08;9.77;;;;;;;2.03;53.17;99060.63;5096344;28;20040;-57
2023/03/07 00:48:19;;;;;;;21.30;11.85;;;;;;;2.04;53.32;99058.94;5096465;28;20034;-57
2023/03/07 00:50:45;;;;;;;23.77;11.80;;;;;;;2.01;53.16;99057.22;5096565;28;20106;-57
2023/03/07 00:53:11;;;;;;;24.52;11.85;;;;;;;2.01;53.40;99054.63;5096703;28;20471;-57
2023/03/07 00:55:36;;;;;;;20.08;10.55;;;;;;;2.04;53.42;99059.78;5094991;28;20032;-57
2023/03/07 00:58:02;;;;;;;20.88;10.02;;;;;;;2.03;53.57;99057.19;5096272;28;20046;-58
2023/03/07 01:00:27;;;;;;;20.42;11.13;;;;;;;1.95;53.64;99049.47;5078039;28;20118;-58
2023/03/07 01:02:53;;;;;;;20.80;11.00;;;;;;;1.93;53.75;99061.59;5095126;28;20029;-58
2023/03/07 01:05:18;;;;;;;19.40;10.68;;;;;;;1.87;54.03;99051.25;5087160;28;20491;-58
2023/03/07 01:07:43;;;;;;;20.33;11.32;;;;;;;1.80;54.28;99055.66;5088391;28;20079;-58
2023/03/07 01:10:09;;;;;;;21.63;11.05;;;;;;;1.84;54.08;99056.50;5095317;28;20459;-58
2023/03/07 01:12:35;;;;;;;22.67;10.68;;;;;;;1.86;53.85;99049.56;5093967;28;20096;-58
2023/03/07 01:15:04;;;;;;;18.92;9.93;;;;;;;1.89;53.78;99044.34;5094810;28;20039;-57
2023/03/07 01:17:29;;;;;;;18.92;9.73;;;;;;;1.92;53.46;99040.00;5095626;28;20391;-58
2023/03/07 01:19:55;;;;;;;22.92;10.23;;;;;;;1.89;53.74;99039.19;5095876;28;20035;-58
2023/03/07 01:22:20;;;;;;;19.30;10.50;;;;;;;1.89;53.93;99029.66;5096221;28;20468;-58
2023/03/07 01:24:45;;;;;;;20.50;9.40;;;;;;;1.87;53.69;99027.94;5095065;28;20085;-58
2023/03/07 01:27:11;;;;;;;22.17;10.02;;;;;;;1.82;54.01;99022.81;5095183;28;20044;-57
2023/03/07 01:29:36;;;;;;;18.98;10.40;;;;;;;1.87;53.87;99023.63;5095490;28;20077;-57
2023/03/07 01:32:02;;;;;;;19.40;9.45;;;;;;;1.88;53.73;99029.69;5091738;28;20089;-57
2023/03/07 01:34:27;;;;;;;18.15;9.55;;;;;;;1.88;53.53;99019.34;5083847;28;20156;-58
2023/03/07 01:36:53;;;;;;;19.80;10.65;;;;;;;1.89;53.59;99018.44;5094131;28;20067;-57
2023/03/07 01:39:18;;;;;;;17.90;9.52;;;;;;;1.83;53.57;99011.56;5095662;28;20059;-59
2023/03/07 01:41:44;;;;;;;21.95;10.80;;;;;;;1.87;53.55;99007.22;5094680;28;20093;-57
2023/03/07 01:44:22;;;;;;;21.05;11.10;;;;;;;1.81;54.04;99010.75;5093407;28;20047;-57
2023/03/07 01:46:55;;;;;;;18.35;10.05;;;;;;;1.82;54.21;99006.41;5095232;28;20036;-57
2023/03/07 01:49:37;;;;;;;19.67;11.23;;;;;;;1.81;53.79;99008.16;5095640;28;20081;-58
2023/03/07 01:52:11;;;;;;;28.90;13.60;;;;;;;1.81;53.78;99004.72;5094611;28;20123;-57
2023/03/07 01:54:41;;;;;;;21.05;11.20;;;;;;;1.80;53.68;98997.81;5094566;28;20067;-57
2023/03/07 01:57:07;;;;;;;20.52;12.13;;;;;;;1.78;54.01;99000.41;5094590;28;20036;-58
2023/03/07 01:59:39;;;;;;;22.92;12.73;;;;;;;1.77;53.75;99000.44;5092946;28;20099;-57
2023/03/07 02:02:10;;;;;;;23.38;12.65;;;;;;;1.75;53.85;98992.66;5091250;28;20036;-57
2023/03/07 02:04:45;;;;;;;20.77;12.10;;;;;;;1.69;54.16;98988.41;5094022;28;20031;-56
2023/03/07 02:07:12;;;;;;;19.88;11.82;;;;;;;1.72;54.02;98984.94;5088127;28;20040;-56
2023/03/07 02:09:40;;;;;;;23.13;12.73;;;;;;;1.78;53.89;98986.59;5094226;28;20059;-57
2023/03/07 02:12:07;;;;;;;29.88;14.35;;;;;;;1.78;53.80;98979.69;5096238;28;20035;-59
2023/03/07 02:14:33;;;;;;;24.90;12.30;;;;;;;1.80;53.77;98980.53;5093105;28;20044;-57
2023/03/07 02:16:58;;;;;;;26.65;12.30;;;;;;;1.78;53.73;98984.00;5094893;28;20032;-57
2023/03/07 02:20:02;;;;;;;25.00;12.40;;;;;;;1.76;54.04;98971.09;5091682;28;20043;-58
2023/03/07 02:22:28;;;;;;;22.08;11.85;;;;;;;1.79;53.54;98975.34;5093433;28;20046;-56
2023/03/07 02:24:56;;;;;;;23.70;12.02;;;;;;;1.71;53.95;98984.03;5092982;28;20068;-58
2023/03/07 02:27:28;;;;;;;27.83;13.88;;;;;;;1.69;53.92;98990.13;5093567;28;20032;-58
2023/03/07 02:29:54;;;;;;;25.50;11.90;;;;;;;1.68;54.00;98978.91;5092465;28;20039;-57
2023/03/07 02:32:19;;;;;;;20.80;10.88;;;;;;;1.75;53.99;98984.88;5095013;28;20028;-58
2023/03/07 02:34:45;;;;;;;25.17;11.75;;;;;;;1.67;54.25;98977.16;5093684;28;20518;-57
2023/03/07 02:37:15;;;;;;;21.77;10.90;;;;;;;1.73;54.27;98979.72;5085350;28;20036;-57
2023/03/07 02:39:43;;;;;;;19.08;10.65;;;;;;;1.72;54.44;98979.75;5086973;28;20427;-59
2023/03/07 02:42:13;;;;;;;22.15;11.70;;;;;;;1.65;54.50;98976.34;5093163;28;20110;-57
2023/03/07 02:44:38;;;;;;;23.80;12.00;;;;;;;1.73;54.52;98969.38;5093473;28;20036;-57
2023/03/07 02:47:07;;;;;;;23.73;11.60;;;;;;;1.77;54.32;98967.63;5093792;28;20043;-56
2023/03/07 02:49:33;;;;;;;19.85;10.73;;;;;;;1.80;54.12;98967.59;5094324;28;20074;-57
2023/03/07 02:51:59;;;;;;;25.85;12.35;;;;;;;1.75;54.44;98960.72;5093247;28;20115;-57
2023/03/07 02:54:25;;;;;;;19.17;10.52;;;;;;;1.75;54.50;98950.34;5094096;28;20105;-57
2023/03/07 02:56:52;;;;;;;22.45;11.45;;;;;;;1.78;54.47;98955.53;5093849;28;20429;-58
2023/03/07 02:59:17;;;;;;;19.25;10.77;;;;;;;1.77;54.66;98952.06;5092800;28;20036;-58
2023/03/07 03:01:42;;;;;;;24.15;11.20;;;;;;;1.73;54.89;98950.38;5093452;28;20042;-57
2023/03/07 03:04:08;;;;;;;25.35;12.65;;;;;;;1.67;54.99;98951.28;5093516;28;20028;-58
2023/03/07 03:06:34;;;;;;;20.60;10.98;;;;;;;1.75;54.88;98951.22;5091771;28;20051;-57
2023/03/07 03:08:59;;;;;;;22.15;11.38;;;;;;;1.71;54.79;98941.75;5082053;28;20035;-58
2023/03/07 03:11:25;;;;;;;18.30;9.63;;;;;;;1.80;54.67;98946.03;5088681;28;20040;-58
2023/03/07 03:13:50;;;;;;;18.92;9.48;;;;;;;1.83;54.74;98946.81;5094000;28;20036;-58
2023/03/07 03:16:16;;;;;;;19.08;9.80;;;;;;;1.89;54.44;98945.94;5093138;28;20036;-57
2023/03/07 03:18:41;;;;;;;22.17;11.05;;;;;;;1.90;54.20;98937.28;5091258;28;20028;-57
2023/03/07 03:21:08;;;;;;;22.42;11.23;;;;;;;1.96;54.36;98935.50;5091784;28;20036;-58
2023/03/07 03:23:33;;;;;;;22.33;10.98;;;;;;;1.95;54.49;98932.91;5093812;28;20036;-58
2023/03/07 03:26:01;;;;;;;20.13;10.77;;;;;;;2.00;54.47;98933.72;5093622;28;20122;-58
2023/03/07 03:28:27;;;;;;;18.23;10.23;;;;;;;2.02;54.11;98934.56;5091300;28;20122;-57
2023/03/07 03:30:58;;;;;;;21.38;11.10;;;;;;;2.01;54.42;98925.06;5093875;28;20097;-58
2023/03/07 03:33:23;;;;;;;20.50;10.38;;;;;;;2.06;54.01;98931.06;5093564;28;20486;-58
2023/03/07 03:35:49;;;;;;;21.25;10.65;;;;;;;2.05;54.60;98926.75;5085828;28;20048;-57
2023/03/07 03:38:15;;;;;;;20.88;10.70;;;;;;;2.09;54.33;98928.44;5084995;28;20059;-58
2023/03/07 03:40:40;;;;;;;23.90;11.68;;;;;;;2.14;53.96;98926.66;5091591;28;20440;-58
2023/03/07 03:43:05;;;;;;;22.27;10.68;;;;;;;2.12;53.94;98918.06;5093704;28;20032;-58
2023/03/07 03:45:31;;;;;;;22.45;11.13;;;;;;;2.14;54.23;98918.88;5092762;28;20043;-58
2023/03/07 03:47:56;;;;;;;20.35;10.52;;;;;;;2.10;54.02;98903.38;5092069;28;20069;-58
2023/03/07 03:50:22;;;;;;;22.27;11.90;;;;;;;2.10;54.29;98906.84;5092743;28;20147;-57
2023/03/07 03:52:47;;;;;;;25.20;11.65;;;;;;;2.09;54.13;98906.88;5097519;28;20068;-58
2023/03/07 03:55:13;;;;;;;20.10;11.73;;;;;;;2.11;54.21;98907.69;5096467;28;20040;-57
2023/03/07 03:57:38;;;;;;;23.77;12.43;;;;;;;2.02;54.15;98900.88;5096086;28;20494;-57
2023/03/07 04:00:07;;;;;;;27.38;12.50;;;;;;;2.10;54.23;98900.78;5095775;28;20087;-57
2023/03/07 04:02:32;;;;;;;28.17;12.88;;;;;;;2.05;54.23;98900.84;5094836;28;20032;-58
2023/03/07 04:04:58;;;;;;;25.25;11.65;;;;;;;1.99;54.40;98895.72;5085185;28;20494;-58
2023/03/07 04:07:27;;;;;;;20.48;10.75;;;;;;;2.06;54.11;98891.34;5092232;28;20430;-56
2023/03/07 04:09:53;;;;;;;24.83;11.65;;;;;;;2.05;54.21;98893.06;5076966;28;20074;-57
2023/03/07 04:12:19;;;;;;;22.83;11.63;;;;;;;2.02;54.18;98885.34;5075735;28;20119;-58
2023/03/07 04:14:44;;;;;;;19.15;10.15;;;;;;;2.03;54.09;98888.78;5082933;28;20127;-58
2023/03/07 04:17:10;;;;;;;24.52;11.48;;;;;;;1.99;54.13;98869.81;5098046;28;20031;-57
2023/03/07 04:19:35;;;;;;;18.58;11.10;;;;;;;2.05;54.32;98880.13;5096864;28;20426;-57
2023/03/07 04:22:01;;;;;;;18.15;9.93;;;;;;;2.09;54.23;98871.44;5097551;28;20434;-59
2023/03/07 04:24:26;;;;;;;18.67;10.52;;;;;;;2.07;54.08;98862.81;5096495;28;20544;-58
2023/03/07 04:26:52;;;;;;;20.23;10.27;;;;;;;2.09;54.22;98860.22;5097029;28;20381;-58
2023/03/07 04:29:17;;;;;;;20.20;10.75;;;;;;;2.09;53.91;98861.06;5095042;28;20421;-58
2023/03/07 04:31:43;;;;;;;24.40;10.85;;;;;;;2.13;53.89;98861.91;5089756;28;20028;-57
2023/03/07 04:34:08;;;;;;;24.00;10.85;;;;;;;2.12;54.32;98844.66;5087103;28;20647;-57
2023/03/07 04:36:33;;;;;;;20.83;11.35;;;;;;;2.10;54.25;98848.97;5095743;28;20048;-58
2023/03/07 04:38:59;;;;;;;23.38;11.00;;;;;;;2.12;54.09;98850.69;5095862;28;20032;-57
2023/03/07 04:41:27;;;;;;;20.05;10.15;;;;;;;2.12;54.24;98837.72;5093789;28;20451;-58
2023/03/07 04:43:53;;;;;;;24.27;10.82;;;;;;;2.17;54.15;98835.94;5096811;28;20032;-58
2023/03/07 04:46:19;;;;;;;20.30;10.55;;;;;;;2.20;54.28;98840.22;5095942;28;20043;-58
2023/03/07 04:48:45;;;;;;;25.38;11.48;;;;;;;2.17;54.11;98833.34;5094802;28;20040;-58
2023/03/07 04:51:11;;;;;;;25.98;12.00;;;;;;;2.27;54.11;98828.03;5095379;28;20036;-57
2023/03/07 04:53:37;;;;;;;19.92;10.80;;;;;;;2.28;53.97;98820.25;5096467;28;20055;-58
2023/03/07 04:56:05;;;;;;;16.42;9.40;;;;;;;2.31;54.22;98814.16;5095022;28;20074;-57
2023/03/07 04:58:31;;;;;;;18.48;9.73;;;;;;;2.39;53.83;98825.28;5093674;28;20388;-57
2023/03/07 05:00:58;;;;;;;22.55;11.15;;;;;;;2.42;53.76;98822.66;5086175;28;20453;-57
2023/03/07 05:03:25;;;;;;;20.33;9.82;;;;;;;2.43;53.74;98817.47;5089387;28;20122;-58
2023/03/07 05:05:51;;;;;;;20.33;10.80;;;;;;;2.42;53.83;98815.72;5095355;28;20115;-57
2023/03/07 05:08:17;;;;;;;21.98;12.02;;;;;;;2.45;53.85;98807.91;5094927;28;20165;-57
2023/03/07 05:10:42;;;;;;;26.77;13.15;;;;;;;2.47;53.77;98805.28;5095568;28;20051;-57
2023/03/07 05:13:08;;;;;;;23.80;12.75;;;;;;;2.56;53.59;98810.38;5096335;28;20092;-57
2023/03/07 05:15:34;;;;;;;24.95;11.85;;;;;;;2.60;53.51;98806.84;5094775;28;20480;-58
2023/03/07 05:17:59;;;;;;;24.13;12.27;;;;;;;2.64;53.35;98805.91;5094092;28;20035;-58
2023/03/07 05:20:25;;;;;;;27.80;13.85;;;;;;;2.67;53.47;98794.63;5095891;28;20495;-59
2023/03/07 05:22:51;;;;;;;27.27;13.98;;;;;;;2.69;53.47;98798.91;5095763;28;20386;-58
2023/03/07 05:25:17;;;;;;;27.52;12.63;;;;;;;2.70;53.62;98784.22;5095435;28;20505;-57
2023/03/07 05:27:42;;;;;;;23.23;11.35;;;;;;;2.71;53.40;98779.03;5089581;28;20097;-57
2023/03/07 05:30:09;;;;;;;22.42;11.50;;;;;;;2.77;53.40;98790.16;5085991;28;20548;-58
2023/03/07 05:32:34;;;;;;;25.45;12.05;;;;;;;2.77;53.50;98779.78;5095676;28;20388;-58
2023/03/07 05:34:59;;;;;;;21.05;11.05;;;;;;;2.80;53.30;98787.53;5094780;28;20438;-58
2023/03/07 05:37:25;;;;;;;24.55;11.07;;;;;;;2.87;53.36;98784.81;5095411;28;20390;-58
2023/03/07 05:39:50;;;;;;;20.90;9.85;;;;;;;2.89;53.25;98782.19;5093692;28;20475;-58
2023/03/07 05:42:16;;;;;;;21.27;10.18;;;;;;;2.90;53.21;98784.75;5095520;28;20101;-58
2023/03/07 05:44:41;;;;;;;22.70;11.93;;;;;;;2.90;53.11;98783.91;5094971;28;20044;-57
2023/03/07 05:47:07;;;;;;;23.95;12.23;;;;;;;2.91;53.49;98777.81;5094911;28;20049;-58
2023/03/07 05:49:33;;;;;;;20.13;11.48;;;;;;;3.04;53.21;98781.09;5092653;28;20085;-58
2023/03/07 05:51:58;;;;;;;25.58;12.45;;;;;;;3.02;53.18;98768.13;5095145;28;20036;-58
2023/03/07 05:54:24;;;;;;;40.42;18.40;;;;;;;3.04;53.36;98775.91;5093996;28;20063;-58
2023/03/07 05:56:49;;;;;;;26.17;13.15;;;;;;;3.10;53.06;98771.44;5084063;28;20035;-57
2023/03/07 05:59:15;;;;;;;21.65;11.27;;;;;;;3.18;53.19;98774.75;5088472;28;20036;-59
2023/03/07 06:01:41;;;;;;;29.70;12.68;;;;;;;3.29;52.75;98771.13;5094281;28;20040;-57
2023/03/07 06:04:07;;;;;;;26.38;12.75;;;;;;;3.41;52.75;98770.91;5092607;28;20031;-58
2023/03/07 06:06:33;;;;;;;21.15;11.13;;;;;;;3.54;52.55;98750.75;5093863;28;20040;-58
2023/03/07 06:08:58;;;;;;;22.00;12.25;;;;;;;3.63;52.20;98751.47;5092112;28;20028;-58
2023/03/07 06:11:24;;;;;;;24.00;11.77;;;;;;;3.67;52.43;98757.41;5089110;28;20043;-58
2023/03/07 06:13:50;;;;;;;20.27;10.70;;;;;;;3.77;52.27;98748.56;5091696;28;20031;-58
2023/03/07 06:16:15;;;;;;;20.13;10.70;;;;;;;3.84;51.86;98738.91;5090543;28;20034;-59
2023/03/07 06:18:41;;;;;;;25.92;12.13;;;;;;;3.82;51.95;98738.94;5093438;28;20047;-57
2023/03/07 06:21:07;;;;;;;21.70;12.02;;;;;;;3.92;51.98;98739.63;5091773;28;20024;-58
2023/03/07 06:23:35;;;;;;;26.02;12.57;;;;;;;3.98;51.79;98729.06;5087584;28;20036;-58
2023/03/07 06:26:01;;;;;;;24.75;12.90;;;;;;;4.04;51.53;98730.72;5082593;28;20044;-59
2023/03/07 06:28:26;;;;;;;25.35;12.15;;;;;;;4.06;51.74;98734.97;5093269;28;20040;-59
2023/03/07 06:30:52;;;;;;;26.95;14.70;;;;;;;4.17;51.19;98735.59;5094355;28;20379;-59
2023/03/07 06:33:18;;;;;;;34.30;16.00;;;;;;;4.27;51.18;98727.59;5093943;28;20032;-57
2023/03/07 06:35:44;;;;;;;30.50;14.52;;;;;;;4.24;51.14;98715.53;5091690;28;20066;-59
2023/03/07 06:38:12;;;;;;;27.40;14.38;;;;;;;4.41;50.88;98720.34;5094412;28;20114;-58
2023/03/07 06:40:38;;;;;;;26.80;13.88;;;;;;;4.58;50.62;98712.97;5094691;28;20024;-58
2023/03/07 06:43:03;;;;;;;26.77;13.32;;;;;;;4.78;50.20;98714.25;5093684;28;20506;-58
2023/03/07 06:45:29;;;;;;;27.85;14.52;;;;;;;4.90;49.93;98708.72;5094321;28;20040;-59
2023/03/07 06:47:54;;;;;;;28.55;14.98;;;;;;;5.04;49.58;98706.66;5094283;28;20036;-58
2023/03/07 06:50:20;;;;;;;29.48;15.32;;;;;;;5.11;49.54;98700.41;5093049;28;20063;-59
2023/03/07 06:52:48;;;;;;;25.90;14.30;;;;;;;5.22;49.25;98691.44;5094395;28;20046;-58
2023/03/07 06:55:14;;;;;;;37.10;19.35;;;;;;;5.34;49.02;98678.06;5094235;28;20032;-59
2023/03/07 06:57:41;;;;;;;33.20;16.08;;;;;;;5.44;48.91;98687.34;5093002;28;20039;-58
2023/03/07 07:00:07;;;;;;;31.52;15.43;;;;;;;5.49;48.84;98688.06;5093394;28;20127;-58
2023/03/07 07:02:32;;;;;;;29.70;14.85;;;;;;;5.64;48.46;98684.19;5076135;28;20480;-58
2023/03/07 07:04:58;;;;;;;26.75;14.73;;;;;;;5.74;48.34;98671.72;5091061;28;20039;-57
2023/03/07 07:07:24;;;;;;;34.50;15.38;;;;;;;5.81;48.03;98681.09;5075011;28;20066;-58
2023/03/07 07:09:50;;;;;;;24.52;13.55;;;;;;;5.90;47.94;98678.19;5091423;28;20071;-58
2023/03/07 07:12:16;;;;;;;29.33;14.85;;;;;;;5.82;47.90;98674.97;5093846;28;20142;-59
2023/03/07 07:14:41;;;;;;;26.55;13.63;;;;;;;5.94;47.65;98669.41;5093039;28;20040;-58
2023/03/07 07:17:07;;;;;;;26.17;13.73;;;;;;;5.90;47.63;98660.84;5092536;28;20455;-58
2023/03/07 07:19:33;;;;;;;32.33;15.18;;;;;;;5.91;47.61;98659.94;5092469;28;20028;-58
2023/03/07 07:21:59;;;;;;;30.70;14.88;;;;;;;5.89;47.65;98651.28;5092322;28;20043;-58
2023/03/07 07:24:24;;;;;;;27.25;13.20;;;;;;;5.79;47.87;98646.41;5086843;28;20036;-57
2023/03/07 07:26:50;;;;;;;26.35;12.88;;;;;;;5.79;47.79;98641.19;5073533;28;20032;-58
2023/03/07 07:29:15;;;;;;;27.83;13.55;;;;;;;5.80;47.62;98635.94;5083800;28;20425;-58
2023/03/07 07:31:41;;;;;;;24.05;12.48;;;;;;;5.85;47.52;98635.78;5092602;28;20446;-58
2023/03/07 07:34:07;;;;;;;23.23;10.98;;;;;;;5.92;47.25;98624.31;5093048;28;20079;-58
2023/03/07 07:36:33;;;;;;;23.33;12.05;;;;;;;6.09;47.12;98614.19;5092549;28;20044;-58
2023/03/07 07:39:04;;;;;;;20.77;10.27;;;;;;;6.23;46.38;98610.31;5093869;28;20438;-57
2023/03/07 07:41:30;;;;;;;20.60;11.30;;;;;;;6.54;46.15;98590.16;5093355;28;20387;-58
2023/03/07 07:43:56;;;;;;;24.38;10.55;;;;;;;6.65;45.56;98589.75;5091620;28;20032;-58
2023/03/07 07:46:22;;;;;;;20.63;11.18;;;;;;;6.85;45.16;98583.84;5092425;28;20372;-58
2023/03/07 07:48:47;;;;;;;21.90;11.10;;;;;;;7.00;44.84;98585.94;5091312;28;20056;-57
2023/03/07 07:51:13;;;;;;;22.15;12.25;;;;;;;7.06;44.55;98575.28;5092094;28;20043;-57
2023/03/07 07:53:38;;;;;;;23.80;11.25;;;;;;;7.09;44.33;98582.97;5091501;28;20043;-58
2023/03/07 07:56:04;;;;;;;20.75;10.27;;;;;;;7.00;43.62;98570.25;5093462;28;20032;-58
2023/03/07 07:58:30;;;;;;;21.70;10.40;;;;;;;7.23;43.72;98568.59;5091202;28;20055;-58
2023/03/07 08:00:55;;;;;;;23.00;11.73;;;;;;;7.65;42.95;98569.56;5091623;28;20071;-59
2023/03/07 08:03:21;;;;;;;22.13;11.43;;;;;;;8.06;42.03;98572.34;5092074;28;20029;-59
2023/03/07 08:05:47;;;;;;;18.35;10.13;;;;;;;8.09;41.95;98564.34;5091470;28;20860;-58
2023/03/07 08:08:18;;;;;;;25.65;10.82;;;;;;;7.67;42.13;98558.22;5092959;28;20154;-57
2023/03/07 08:10:45;;;;;;;20.30;10.20;;;;;;;7.29;42.54;98555.28;5092200;28;20077;-58
2023/03/07 08:13:15;;;;;;;22.83;11.02;;;;;;;7.18;41.86;98552.22;5091404;28;20059;-57
2023/03/07 08:15:41;;;;;;;24.88;12.15;;;;;;;7.16;42.60;98544.44;5093008;28;20130;-58
2023/03/07 08:18:07;;;;;;;23.92;12.10;;;;;;;7.63;41.74;98547.88;5091305;28;20036;-57
2023/03/07 08:20:32;;;;;;;25.67;12.68;;;;;;;7.29;41.79;98542.22;5093338;28;20039;-58
2023/03/07 08:22:58;;;;;;;25.70;12.50;;;;;;;7.39;41.96;98535.75;5092793;28;20032;-56
2023/03/07 08:25:24;;;;;;;23.85;11.75;;;;;;;7.65;41.51;98532.13;5091024;28;20036;-58
2023/03/07 08:27:54;;;;;;;22.95;12.15;;;;;;;7.69;41.46;98532.84;5093121;28;20111;-58
2023/03/07 08:30:21;;;;;;;30.30;13.32;;;;;;;7.85;41.19;98539.19;5091704;28;20032;-57
2023/03/07 08:32:51;;;;;;;29.90;13.82;;;;;;;7.93;40.19;98528.41;5091764;28;20490;-57
2023/03/07 08:35:17;;;;;;;27.38;12.65;;;;;;;8.06;40.86;98521.78;5092427;28;20048;-59
2023/03/07 08:37:43;;;;;;;20.92;11.20;;;;;;;8.02;40.76;98521.06;5091332;28;20032;-58
2023/03/07 08:40:09;;;;;;;31.42;12.98;;;;;;;8.00;40.64;98517.66;5096777;28;20073;-58
2023/03/07 08:42:35;;;;;;;26.60;12.38;;;;;;;7.87;40.57;98521.69;5095465;28;20047;-57
2023/03/07 08:45:00;;;;;;;24.75;12.70;;;;;;;7.82;41.16;98518.38;5096522;28;20036;-58
2023/03/07 08:47:26;;;;;;;27.00;12.75;;;;;;;7.80;41.32;98514.97;5096593;28;20034;-58
2023/03/07 08:49:51;;;;;;;24.17;12.70;;;;;;;7.66;41.65;98512.94;5094818;28;20040;-58
2023/03/07 08:52:17;;;;;;;27.20;14.30;;;;;;;7.53;42.08;98498.63;5090522;28;20043;-58
2023/03/07 08:54:42;;;;;;;24.05;13.27;;;;;;;7.44;42.32;98493.75;5095187;28;20032;-58
2023/03/07 08:57:08;;;;;;;22.58;13.15;;;;;;;7.26;42.87;98482.25;5096356;28;20032;-57
2023/03/07 08:59:33;;;;;;;23.38;12.57;;;;;;;7.31;42.94;98472.50;5096210;28;20527;-58
2023/03/07 09:01:58;;;;;;;27.00;14.18;;;;;;;7.43;42.94;98464.19;5085062;28;20047;-56
2023/03/07 09:04:24;;;;;;;28.23;14.85;;;;;;;7.33;43.16;98462.81;5079929;28;20079;-58
2023/03/07 09:06:50;;;;;;;28.38;14.35;;;;;;;7.37;43.18;98464.41;5064047;28;20032;-58
2023/03/07 09:09:15;;;;;;;30.35;16.17;;;;;;;7.29;43.31;98445.56;5074946;28;20101;-57
2023/03/07 09:11:41;;;;;;;28.70;15.90;;;;;;;7.29;43.63;98445.56;5074594;28;20091;-57
2023/03/07 09:14:06;;;;;;;29.13;15.63;;;;;;;7.16;43.90;98446.03;5075630;28;20123;-57
2023/03/07 09:16:32;;;;;;;33.80;16.23;;;;;;;7.16;44.12;98438.19;5079386;28;20437;-57
2023/03/07 09:18:57;;;;;;;34.40;16.92;;;;;;;7.22;44.14;98426.69;5087025;28;20032;-57
2023/03/07 09:21:29;;;;;;;31.92;17.00;;;;;;;7.16;44.58;98435.59;5095908;28;20028;-58
2023/03/07 09:23:54;;;;;;;30.55;15.75;;;;;;;7.09;44.56;98418.44;5087109;28;20040;-58
2023/03/07 09:26:20;;;;;;;33.35;16.33;;;;;;;7.13;44.74;98419.19;5074376;28;20090;-57
2023/03/07 09:28:45;;;;;;;33.80;16.85;;;;;;;7.13;45.32;98416.56;5075712;28;20040;-58
2023/03/07 09:31:13;;;;;;;31.70;17.50;;;;;;;7.16;46.12;98412.09;5078331;28;20071;-57
2023/03/07 09:33:39;;;;;;;30.30;15.82;;;;;;;7.30;45.90;98405.44;5073980;28;20039;-57
2023/03/07 09:36:07;;;;;;;34.50;16.85;;;;;;;7.54;45.66;98401.88;5069391;28;20045;-58
2023/03/07 09:38:33;;;;;;;36.60;17.65;;;;;;;7.45;46.25;98393.53;5074260;28;20082;-58
2023/03/07 09:41:25;;;;;;;36.25;17.80;;;;;;;7.45;46.90;98388.31;5075271;28;20479;-58
2023/03/07 09:44:16;;;;;;;30.60;16.98;;;;;;;7.50;47.31;98373.28;5074302;28;20032;-58
2023/03/07 09:47:12;;;;;;;33.92;16.48;;;;;;;7.60;47.20;98385.09;5075438;28;20036;-58
2023/03/07 09:49:47;;;;;;;36.17;17.20;;;;;;;7.55;46.77;98369.59;5074956;28;20032;-58
2023/03/07 09:52:24;;;;;;;33.47;17.80;;;;;;;7.42;47.56;98368.41;5075418;28;20107;-58
2023/03/07 09:55:00;;;;;;;35.28;18.08;;;;;;;7.41;47.88;98371.91;5075126;28;20035;-58
2023/03/07 09:57:32;;;;;;;34.97;17.50;;;;;;;7.50;47.24;98355.88;5075532;28;20043;-58
2023/03/07 10:00:20;;;;;;;39.75;19.73;;;;;;;7.39;47.84;98348.47;5074964;28;20478;-58
2023/03/07 10:03:15;;;;;;;37.67;19.85;;;;;;;7.55;48.02;98353.91;5056485;28;20553;-59
2023/03/07 10:05:47;;;;;;;38.30;18.40;;;;;;;7.49;47.61;98359.38;5074984;28;20029;-58
2023/03/07 10:08:16;;;;;;;35.75;19.33;;;;;;;7.54;47.77;98348.75;5074850;28;20112;-57
2023/03/07 10:10:48;;;;;;;34.13;18.65;;;;;;;7.54;47.80;98341.78;5090361;28;20182;-59
2023/03/07 10:13:26;;;;;;;33.08;17.55;;;;;;;7.52;48.75;98332.28;5073720;28;20037;-59
2023/03/07 10:15:55;;;;;;;33.75;17.42;;;;;;;7.67;48.03;98321.19;5074565;28;20056;-58
2023/03/07 10:18:32;;;;;;;32.30;17.33;;;;;;;7.57;48.71;98325.09;5074682;28;20383;-59
2023/03/07 10:21:10;;;;;;;31.48;16.13;;;;;;;7.75;48.02;98319.09;5073476;28;20097;-59
2023/03/07 10:23:57;;;;;;;32.50;18.13;;;;;;;7.90;48.67;98317.59;5074563;28;20041;-59
2023/03/07 10:26:46;;;;;;;29.77;16.13;;;;;;;7.96;48.77;98306.84;5074739;28;20385;-58
2023/03/07 10:29:16;;;;;;;32.55;17.40;;;;;;;8.13;48.08;98293.03;5074448;28;20036;-58
2023/03/07 10:32:00;;;;;;;30.77;16.05;;;;;;;8.03;48.75;98302.22;5074683;28;20119;-58
2023/03/07 10:34:28;;;;;;;31.30;16.27;;;;;;;8.27;47.84;98290.66;5073211;28;20080;-58
2023/03/07 10:37:13;;;;;;;30.27;16.27;;;;;;;8.38;48.41;98283.19;5081485;28;20058;-59
2023/03/07 10:39:49;;;;;;;30.73;15.82;;;;;;;8.62;47.31;98273.34;5094105;28;20035;-58
2023/03/07 10:42:15;;;;;;;29.08;16.15;;;;;;;8.75;46.92;98268.38;5078134;28;20115;-59
2023/03/07 10:44:44;;;;;;;27.63;16.20;;;;;;;8.66;47.23;98260.97;5094465;28;20028;-59
2023/03/07 10:47:18;;;;;;;26.98;15.50;;;;;;;8.79;47.17;98266.47;5094151;28;20437;-59
2023/03/07 10:49:46;;;;;;;27.05;14.48;;;;;;;8.59;47.28;98257.78;5094504;28;20032;-59
2023/03/07 10:52:30;;;;;;;25.00;14.43;;;;;;;8.53;47.97;98238.88;5094360;28;20069;-58
2023/03/07 10:55:33;;;;;;;28.55;14.70;;;;;;;8.26;48.96;98239.25;5084522;28;20028;-58
2023/03/07 10:58:23;;;;;;;27.73;13.20;;;;;;;8.31;48.94;98234.63;5094485;28;20103;-58
2023/03/07 11:01:06;;;;;;;33.58;16.17;;;;;;;8.47;48.59;98228.72;5079590;28;20048;-58
2023/03/07 11:03:51;;;;;;;32.78;16.42;;;;;;;8.46;48.42;98227.88;5090612;28;20040;-60
2023/03/07 11:06:28;;;;;;;31.92;17.10;;;;;;;8.22;49.12;98214.16;5093284;28;20035;-57
2023/03/07 11:08:55;;;;;;;29.88;16.92;;;;;;;8.28;48.62;98203.38;5092909;28;20028;-58
2023/03/07 11:11:29;;;;;;;26.85;15.48;;;;;;;8.36;48.86;98205.63;5094087;28;20510;-59
2023/03/07 11:14:12;;;;;;;29.15;15.50;;;;;;;8.41;49.14;98197.59;5092863;28;20106;-60
2023/03/07 11:16:56;;;;;;;30.50;16.17;;;;;;;8.29;49.55;98186.75;5092843;28;20028;-59
2023/03/07 11:19:27;;;;;;;29.98;16.65;;;;;;;8.05;49.83;98195.75;5093757;28;20253;-58
2023/03/07 11:21:55;;;;;;;30.02;16.77;;;;;;;8.13;49.21;98199.69;5092113;28;20040;-58
2023/03/07 11:24:25;;;;;;;33.70;17.80;;;;;;;8.02;49.82;98193.25;5089305;28;20476;-58
2023/03/07 11:26:58;;;;;;;32.50;17.65;;;;;;;8.13;49.78;98189.22;5090746;28;20077;-58
2023/03/07 11:29:27;;;;;;;33.28;18.63;;;;;;;8.03;49.74;98187.97;5105616;28;20031;-59
2023/03/07 11:32:20;;;;;;;33.95;18.50;;;;;;;7.91;50.43;98183.31;5092182;28;20153;-58